createdAt,value
2017-03-15T00:00:13.772Z,1021.85
2017-03-15T00:01:24.021Z,1021.88
2017-03-15T00:02:33.965Z,1021.81
2017-03-15T00:03:43.904Z,1021.74
2017-03-15T00:04:53.849Z,1021.74
2017-03-15T00:06:03.787Z,1021.7
2017-03-15T00:07:13.723Z,1021.64
2017-03-15T00:08:23.352Z,1021.7
2017-03-15T00:09:33.603Z,1021.71
2017-03-15T00:10:42.902Z,1021.76
2017-03-15T00:11:52.833Z,1021.75
2017-03-15T00:13:02.457Z,1021.75
2017-03-15T00:14:12.711Z,1021.82
2017-03-15T00:15:22.958Z,1021.82
2017-03-15T00:16:32.892Z,1021.74
2017-03-15T00:17:42.825Z,1021.75
2017-03-15T00:18:52.451Z,1021.78
2017-03-15T00:20:02.701Z,1021.74
2017-03-15T00:21:12.653Z,1021.81
2017-03-15T00:22:22.903Z,1021.89
2017-03-15T00:23:33.152Z,1021.87
2017-03-15T00:24:43.081Z,1021.86
2017-03-15T00:25:53.331Z,1021.82
2017-03-15T00:27:03.582Z,1021.83
2017-03-15T00:28:13.516Z,1021.81
2017-03-15T00:29:23.451Z,1021.74
2017-03-15T00:30:33.728Z,1021.74
2017-03-15T00:31:43.671Z,1021.68
2017-03-15T00:32:53.928Z,1021.66
2017-03-15T00:34:04.171Z,1021.57
2017-03-15T00:35:14.416Z,1021.61
2017-03-15T00:36:24.041Z,1021.63
2017-03-15T00:37:34.290Z,1021.59
2017-03-15T00:38:44.538Z,1021.57
2017-03-15T00:39:54.790Z,1021.7
2017-03-15T00:41:04.411Z,1021.65
2017-03-15T00:42:14.355Z,1021.72
2017-03-15T00:43:24.293Z,1021.66
2017-03-15T00:44:34.552Z,1021.65
2017-03-15T00:45:43.873Z,1021.61
2017-03-15T00:46:53.810Z,1021.6
2017-03-15T00:48:04.084Z,1021.66
2017-03-15T00:49:14.340Z,1021.66
2017-03-15T00:50:24.277Z,1021.61
2017-03-15T00:51:34.219Z,1021.62
2017-03-15T00:52:44.157Z,1021.61
2017-03-15T00:53:54.403Z,1021.56
2017-03-15T00:55:04.661Z,1021.6
2017-03-15T00:56:14.911Z,1021.67
2017-03-15T00:57:24.529Z,1021.62
2017-03-15T00:58:34.468Z,1021.61
2017-03-15T00:59:44.130Z,1021.63
2017-03-15T01:00:54.063Z,1021.56
2017-03-15T01:02:04.006Z,1021.57
2017-03-15T01:03:13.632Z,1021.61
2017-03-15T01:04:23.885Z,1021.61
2017-03-15T01:05:33.511Z,1021.63
2017-03-15T01:06:43.445Z,1021.61
2017-03-15T01:07:53.695Z,1021.56
2017-03-15T01:09:03.630Z,1021.52
2017-03-15T01:10:13.882Z,1021.52
2017-03-15T01:11:23.817Z,1021.52
2017-03-15T01:12:33.754Z,1021.51
2017-03-15T01:13:44.007Z,1021.51
2017-03-15T01:14:53.316Z,1021.59
2017-03-15T01:16:03.258Z,1021.51
2017-03-15T01:17:13.202Z,1021.51
2017-03-15T01:18:23.136Z,1021.48
2017-03-15T01:19:33.382Z,1021.43
2017-03-15T01:20:43.624Z,1021.43
2017-03-15T01:21:53.878Z,1021.48
2017-03-15T01:23:03.512Z,1021.45
2017-03-15T01:24:13.786Z,1021.42
2017-03-15T01:25:24.022Z,1021.39
2017-03-15T01:26:34.274Z,1021.48
2017-03-15T01:27:44.525Z,1021.41
2017-03-15T01:28:54.159Z,1021.44
2017-03-15T01:30:04.101Z,1021.48
2017-03-15T01:31:14.355Z,1021.43
2017-03-15T01:32:24.602Z,1021.42
2017-03-15T01:33:34.223Z,1021.37
2017-03-15T01:34:44.472Z,1021.43
2017-03-15T01:35:54.118Z,1021.39
2017-03-15T01:37:04.365Z,1021.37
2017-03-15T01:38:13.992Z,1021.37
2017-03-15T01:39:24.252Z,1021.28
2017-03-15T01:40:34.504Z,1021.37
2017-03-15T01:41:44.435Z,1021.37
2017-03-15T01:42:54.079Z,1021.34
2017-03-15T01:44:03.710Z,1021.36
2017-03-15T01:45:13.666Z,1021.36
2017-03-15T01:46:23.596Z,1021.3
2017-03-15T01:47:33.537Z,1021.41
2017-03-15T01:48:43.785Z,1021.37
2017-03-15T01:49:53.722Z,1021.4
2017-03-15T01:51:03.345Z,1021.4
2017-03-15T01:52:13.599Z,1021.41
2017-03-15T01:53:23.217Z,1021.38
2017-03-15T01:54:32.842Z,1021.38
2017-03-15T01:55:42.775Z,1021.37
2017-03-15T01:56:52.710Z,1021.42
2017-03-15T01:58:02.027Z,1021.38
2017-03-15T01:59:11.954Z,1021.33
2017-03-15T02:00:21.897Z,1021.39
2017-03-15T02:01:32.150Z,1021.34
2017-03-15T02:02:42.128Z,1021.36
2017-03-15T02:03:52.092Z,1021.38
2017-03-15T02:05:02.339Z,1021.33
2017-03-15T02:06:12.592Z,1021.32
2017-03-15T02:07:22.535Z,1021.37
2017-03-15T02:08:32.480Z,1021.39
2017-03-15T02:09:42.732Z,1021.34
2017-03-15T02:10:52.674Z,1021.33
2017-03-15T02:12:02.293Z,1021.31
2017-03-15T02:13:12.546Z,1021.32
2017-03-15T02:14:22.487Z,1021.3
2017-03-15T02:15:32.437Z,1021.28
2017-03-15T02:16:42.064Z,1021.31
2017-03-15T02:17:51.999Z,1021.33
2017-03-15T02:19:01.930Z,1021.37
2017-03-15T02:20:11.238Z,1021.38
2017-03-15T02:21:21.175Z,1021.42
2017-03-15T02:22:31.422Z,1021.46
2017-03-15T02:23:41.666Z,1021.46
2017-03-15T02:24:51.607Z,1021.47
2017-03-15T02:26:01.231Z,1021.44
2017-03-15T02:27:10.854Z,1021.52
2017-03-15T02:28:21.112Z,1021.53
2017-03-15T02:29:30.733Z,1021.52
2017-03-15T02:30:40.981Z,1021.55
2017-03-15T02:31:50.917Z,1021.59
2017-03-15T02:33:01.153Z,1021.58
2017-03-15T02:34:11.402Z,1021.58
2017-03-15T02:35:21.332Z,1021.63
2017-03-15T02:36:31.583Z,1021.73
2017-03-15T02:37:41.531Z,1021.67
2017-03-15T02:38:51.771Z,1021.73
2017-03-15T02:40:01.713Z,1021.75
2017-03-15T02:41:11.653Z,1021.66
2017-03-15T02:42:21.905Z,1021.68
2017-03-15T02:43:32.179Z,1021.69
2017-03-15T02:44:42.121Z,1021.74
2017-03-15T02:45:52.373Z,1021.73
2017-03-15T02:47:02.035Z,1021.76
2017-03-15T02:48:12.283Z,1021.77
2017-03-15T02:49:22.223Z,1021.8
2017-03-15T02:50:32.167Z,1021.77
2017-03-15T02:51:42.114Z,1021.8
2017-03-15T02:52:51.737Z,1021.82
2017-03-15T02:54:01.984Z,1021.77
2017-03-15T02:55:11.609Z,1021.84
2017-03-15T02:56:21.860Z,1021.79
2017-03-15T02:57:31.795Z,1021.8
2017-03-15T02:58:41.737Z,1021.77
2017-03-15T02:59:51.367Z,1021.77
2017-03-15T03:01:01.305Z,1021.74
2017-03-15T03:02:11.567Z,1021.77
2017-03-15T03:03:21.495Z,1021.8
2017-03-15T03:04:31.426Z,1021.77
2017-03-15T03:05:41.673Z,1021.75
2017-03-15T03:06:51.603Z,1021.72
2017-03-15T03:08:01.867Z,1021.72
2017-03-15T03:09:11.799Z,1021.74
2017-03-15T03:10:21.737Z,1021.79
2017-03-15T03:11:31.680Z,1021.73
2017-03-15T03:12:41.620Z,1021.73
2017-03-15T03:13:51.552Z,1021.73
2017-03-15T03:15:01.799Z,1021.84
2017-03-15T03:16:11.759Z,1021.76
2017-03-15T03:17:21.696Z,1021.8
2017-03-15T03:18:31.648Z,1021.77
2017-03-15T03:19:41.598Z,1021.8
2017-03-15T03:20:51.531Z,1021.7
2017-03-15T03:22:01.783Z,1021.81
2017-03-15T03:23:11.084Z,1021.86
2017-03-15T03:24:21.336Z,1021.83
2017-03-15T03:25:31.598Z,1021.84
2017-03-15T03:26:41.848Z,1021.87
2017-03-15T03:27:51.787Z,1021.98
2017-03-15T03:29:02.032Z,1021.86
2017-03-15T03:30:11.339Z,1021.92
2017-03-15T03:31:21.277Z,1021.91
2017-03-15T03:32:30.903Z,1021.96
2017-03-15T03:33:41.152Z,1022.04
2017-03-15T03:34:51.399Z,1021.98
2017-03-15T03:36:01.653Z,1022.03
2017-03-15T03:37:11.270Z,1021.97
2017-03-15T03:38:21.199Z,1022.03
2017-03-15T03:39:31.448Z,1022.1
2017-03-15T03:40:41.381Z,1022.03
2017-03-15T03:41:51.625Z,1022.04
2017-03-15T03:43:01.560Z,1022.05
2017-03-15T03:44:11.493Z,1022.08
2017-03-15T03:45:21.753Z,1022.09
2017-03-15T03:46:31.688Z,1022.14
2017-03-15T03:47:41.940Z,1022.09
2017-03-15T03:48:52.193Z,1022.05
2017-03-15T03:50:02.443Z,1022
2017-03-15T03:51:12.393Z,1022.04
2017-03-15T03:52:22.338Z,1021.98
2017-03-15T03:53:32.276Z,1022.08
2017-03-15T03:54:42.529Z,1022.07
2017-03-15T03:55:52.462Z,1022.03
2017-03-15T03:57:02.418Z,1021.99
2017-03-15T03:58:12.663Z,1022.04
2017-03-15T03:59:22.288Z,1022.06
2017-03-15T04:00:32.238Z,1022.03
2017-03-15T04:01:42.171Z,1022
2017-03-15T04:02:52.102Z,1022.03
2017-03-15T04:04:02.351Z,1022.04
2017-03-15T04:05:12.292Z,1022.01
2017-03-15T04:06:22.228Z,1022.03
2017-03-15T04:07:32.165Z,1022.03
2017-03-15T04:08:42.436Z,1022.06
2017-03-15T04:09:52.687Z,1022.1
2017-03-15T04:11:02.931Z,1022.05
2017-03-15T04:12:12.864Z,1022.02
2017-03-15T04:13:23.115Z,1022.08
2017-03-15T04:14:33.371Z,1022.09
2017-03-15T04:15:43.313Z,1022.11
2017-03-15T04:16:52.933Z,1022.07
2017-03-15T04:18:02.871Z,1022.13
2017-03-15T04:19:13.123Z,1022.16
2017-03-15T04:20:23.075Z,1022.11
2017-03-15T04:21:33.342Z,1022.17
2017-03-15T04:22:43.280Z,1022.18
2017-03-15T04:23:53.218Z,1022.16
2017-03-15T04:25:03.153Z,1022.15
2017-03-15T04:26:13.109Z,1022.18
2017-03-15T04:27:23.361Z,1022.16
2017-03-15T04:28:33.294Z,1022.12
2017-03-15T04:29:42.935Z,1022.13
2017-03-15T04:30:53.183Z,1022.12
2017-03-15T04:32:03.431Z,1022.19
2017-03-15T04:33:13.357Z,1022.2
2017-03-15T04:34:23.614Z,1022.19
2017-03-15T04:35:33.879Z,1022.11
2017-03-15T04:36:44.127Z,1022.11
2017-03-15T04:37:54.379Z,1022.18
2017-03-15T04:39:04.643Z,1022.2
2017-03-15T04:40:14.589Z,1022.21
2017-03-15T04:41:24.841Z,1022.23
2017-03-15T04:42:34.774Z,1022.13
2017-03-15T04:43:45.028Z,1022.22
2017-03-15T04:44:55.284Z,1022.25
2017-03-15T04:46:05.217Z,1022.24
2017-03-15T04:47:15.165Z,1022.21
2017-03-15T04:48:24.798Z,1022.25
2017-03-15T04:49:35.063Z,1022.24
2017-03-15T04:50:44.682Z,1022.23
2017-03-15T04:51:54.933Z,1022.28
2017-03-15T04:53:04.864Z,1022.29
2017-03-15T04:54:14.811Z,1022.28
2017-03-15T04:55:25.067Z,1022.32
2017-03-15T04:56:35.003Z,1022.27
2017-03-15T04:57:44.631Z,1022.3
2017-03-15T04:58:54.568Z,1022.31
2017-03-15T05:00:04.812Z,1022.31
2017-03-15T05:01:14.761Z,1022.3
2017-03-15T05:02:24.703Z,1022.31
2017-03-15T05:03:34.357Z,1022.24
2017-03-15T05:04:43.996Z,1022.2
2017-03-15T05:05:54.249Z,1022.25
2017-03-15T05:07:04.500Z,1022.19
2017-03-15T05:08:14.756Z,1022.2
2017-03-15T05:09:24.708Z,1022.3
2017-03-15T05:10:34.954Z,1022.26
2017-03-15T05:11:45.201Z,1022.22
2017-03-15T05:12:55.449Z,1022.27
2017-03-15T05:14:05.380Z,1022.25
2017-03-15T05:15:15.314Z,1022.31
2017-03-15T05:16:25.561Z,1022.29
2017-03-15T05:17:35.813Z,1022.27
2017-03-15T05:18:45.755Z,1022.27
2017-03-15T05:19:56.002Z,1022.32
2017-03-15T05:21:05.307Z,1022.4
2017-03-15T05:22:15.239Z,1022.38
2017-03-15T05:23:25.486Z,1022.34
2017-03-15T05:24:35.118Z,1022.38
2017-03-15T05:25:45.370Z,1022.41
2017-03-15T05:26:54.675Z,1022.4
2017-03-15T05:28:04.923Z,1022.41
2017-03-15T05:29:14.553Z,1022.42
2017-03-15T05:30:24.799Z,1022.42
2017-03-15T05:31:35.047Z,1022.52
2017-03-15T05:32:44.664Z,1022.54
2017-03-15T05:33:54.598Z,1022.52
2017-03-15T05:35:04.849Z,1022.62
2017-03-15T05:36:14.790Z,1022.67
2017-03-15T05:37:25.044Z,1022.6
2017-03-15T05:38:34.666Z,1022.68
2017-03-15T05:39:44.595Z,1022.69
2017-03-15T05:40:54.218Z,1022.75
2017-03-15T05:42:04.152Z,1022.69
2017-03-15T05:43:14.082Z,1022.7
2017-03-15T05:44:24.026Z,1022.71
2017-03-15T05:45:33.959Z,1022.75
2017-03-15T05:46:44.209Z,1022.81
2017-03-15T05:47:54.457Z,1022.83
2017-03-15T05:49:04.078Z,1022.86
2017-03-15T05:50:14.016Z,1022.87
2017-03-15T05:51:23.952Z,1022.92
2017-03-15T05:52:34.205Z,1022.91
2017-03-15T05:53:44.149Z,1022.93
2017-03-15T05:54:53.778Z,1022.91
2017-03-15T05:56:04.026Z,1022.85
2017-03-15T05:57:13.652Z,1022.91
2017-03-15T05:58:23.906Z,1022.92
2017-03-15T05:59:34.156Z,1022.89
2017-03-15T06:00:44.403Z,1022.91
2017-03-15T06:01:54.651Z,1023.01
2017-03-15T06:03:04.584Z,1022.97
2017-03-15T06:04:14.523Z,1023
2017-03-15T06:05:24.795Z,1023.05
2017-03-15T06:06:35.040Z,1023.11
2017-03-15T06:07:44.986Z,1023.12
2017-03-15T06:08:54.913Z,1023.2
2017-03-15T06:10:05.171Z,1023.24
2017-03-15T06:11:15.446Z,1023.2
2017-03-15T06:12:25.104Z,1023.21
2017-03-15T06:13:35.364Z,1023.17
2017-03-15T06:14:45.316Z,1023.16
2017-03-15T06:15:55.571Z,1023.19
2017-03-15T06:17:05.816Z,1023.26
2017-03-15T06:18:16.066Z,1023.2
2017-03-15T06:19:26.314Z,1023.24
2017-03-15T06:20:35.938Z,1023.17
2017-03-15T06:21:46.193Z,1023.25
2017-03-15T06:22:55.815Z,1023.31
2017-03-15T06:24:05.748Z,1023.31
2017-03-15T06:25:15.370Z,1023.31
2017-03-15T06:26:25.310Z,1023.33
2017-03-15T06:27:35.242Z,1023.43
2017-03-15T06:28:45.176Z,1023.41
2017-03-15T06:29:55.431Z,1023.44
2017-03-15T06:31:05.060Z,1023.56
2017-03-15T06:32:15.316Z,1023.58
2017-03-15T06:33:24.937Z,1023.56
2017-03-15T06:34:35.185Z,1023.59
2017-03-15T06:35:45.113Z,1023.57
2017-03-15T06:36:55.045Z,1023.58
2017-03-15T06:38:04.982Z,1023.68
2017-03-15T06:39:15.232Z,1023.68
2017-03-15T06:40:25.481Z,1023.69
2017-03-15T06:41:35.422Z,1023.89
2017-03-15T06:42:45.050Z,1023.73
2017-03-15T06:43:54.985Z,1023.77
2017-03-15T06:45:04.919Z,1023.79
2017-03-15T06:46:15.164Z,1023.84
2017-03-15T06:47:25.409Z,1023.84
2017-03-15T06:48:35.345Z,1023.92
2017-03-15T06:49:45.276Z,1023.87
2017-03-15T06:50:55.214Z,1023.84
2017-03-15T06:52:05.471Z,1023.87
2017-03-15T06:53:15.108Z,1023.97
2017-03-15T06:54:24.420Z,1023.98
2017-03-15T06:55:34.670Z,1023.99
2017-03-15T06:56:44.932Z,1024.05
2017-03-15T06:57:55.183Z,1023.99
2017-03-15T06:59:04.817Z,1024.05
2017-03-15T07:00:15.055Z,1023.98
2017-03-15T07:01:25.007Z,1023.98
2017-03-15T07:02:34.645Z,1024.04
2017-03-15T07:03:44.926Z,1023.98
2017-03-15T07:04:55.176Z,1024.08
2017-03-15T07:06:05.114Z,1024.06
2017-03-15T07:07:14.737Z,1024.04
2017-03-15T07:08:24.994Z,1024.04
2017-03-15T07:09:35.249Z,1024.05
2017-03-15T07:10:44.875Z,1024.01
2017-03-15T07:11:54.816Z,1024
2017-03-15T07:13:04.760Z,1024.07
2017-03-15T07:14:15.004Z,1024.02
2017-03-15T07:15:24.959Z,1023.98
2017-03-15T07:16:35.203Z,1024.05
2017-03-15T07:17:45.135Z,1024.1
2017-03-15T07:18:55.067Z,1023.97
2017-03-15T07:20:05.318Z,1023.99
2017-03-15T07:21:15.567Z,1024.02
2017-03-15T07:22:25.827Z,1024.03
2017-03-15T07:23:36.077Z,1024.06
2017-03-15T07:24:45.696Z,1024.03
2017-03-15T07:25:55.639Z,1024.04
2017-03-15T07:27:05.890Z,1024.09
2017-03-15T07:28:16.144Z,1024.08
2017-03-15T07:29:26.088Z,1024.1
2017-03-15T07:30:36.034Z,1024.09
2017-03-15T07:31:45.651Z,1024.2
2017-03-15T07:32:55.285Z,1024.16
2017-03-15T07:34:05.541Z,1024.21
2017-03-15T07:35:15.790Z,1024.21
2017-03-15T07:36:25.731Z,1024.2
2017-03-15T07:37:35.982Z,1024.2
2017-03-15T07:38:45.927Z,1024.26
2017-03-15T07:39:55.870Z,1024.27
2017-03-15T07:41:05.829Z,1024.33
2017-03-15T07:42:15.774Z,1024.24
2017-03-15T07:43:26.025Z,1024.22
2017-03-15T07:44:35.953Z,1024.3
2017-03-15T07:45:45.883Z,1024.21
2017-03-15T07:46:55.818Z,1024.21
2017-03-15T07:48:05.778Z,1024.22
2017-03-15T07:49:15.396Z,1024.2
2017-03-15T07:50:25.649Z,1024.21
2017-03-15T07:51:35.590Z,1024.15
2017-03-15T07:52:45.218Z,1024.29
2017-03-15T07:53:55.164Z,1024.2
2017-03-15T07:55:05.418Z,1024.21
2017-03-15T07:56:14.728Z,1024.24
2017-03-15T07:57:24.974Z,1024.24
2017-03-15T07:58:35.215Z,1024.18
2017-03-15T07:59:44.842Z,1024.25
2017-03-15T08:00:54.780Z,1024.24
2017-03-15T08:02:05.035Z,1024.17
2017-03-15T08:03:15.285Z,1024.17
2017-03-15T08:04:25.221Z,1024.18
2017-03-15T08:05:35.191Z,1024.19
2017-03-15T08:06:45.135Z,1024.15
2017-03-15T08:07:54.753Z,1024.16
2017-03-15T08:09:04.995Z,1024.17
2017-03-15T08:10:15.238Z,1024.27
2017-03-15T08:11:24.551Z,1024.23
2017-03-15T08:12:34.803Z,1024.18
2017-03-15T08:13:45.052Z,1024.04
2017-03-15T08:14:55.299Z,1023.99
2017-03-15T08:16:04.917Z,1024.02
2017-03-15T08:17:14.854Z,1023.99
2017-03-15T08:18:24.786Z,1023.93
2017-03-15T08:19:34.720Z,1023.95
2017-03-15T08:20:44.978Z,1023.89
2017-03-15T08:21:55.227Z,1023.9
2017-03-15T08:23:04.851Z,1023.96
2017-03-15T08:24:15.105Z,1023.97
2017-03-15T08:25:25.046Z,1023.94
2017-03-15T08:26:35.014Z,1023.95
2017-03-15T08:27:44.943Z,1023.94
2017-03-15T08:28:54.882Z,1023.98
2017-03-15T08:30:05.133Z,1024.01
2017-03-15T08:31:14.753Z,1023.99
2017-03-15T08:32:24.061Z,1023.96
2017-03-15T08:33:33.690Z,1023.91
2017-03-15T08:34:43.310Z,1023.97
2017-03-15T08:35:53.560Z,1024.01
2017-03-15T08:37:03.176Z,1023.93
2017-03-15T08:38:12.798Z,1023.92
2017-03-15T08:39:22.734Z,1023.86
2017-03-15T08:40:33.005Z,1023.82
2017-03-15T08:41:42.630Z,1023.81
2017-03-15T08:42:52.562Z,1023.84
2017-03-15T08:44:02.820Z,1023.82
2017-03-15T08:45:12.437Z,1023.88
2017-03-15T08:46:22.700Z,1023.87
2017-03-15T08:47:32.955Z,1023.88
2017-03-15T08:48:42.569Z,1023.94
2017-03-15T08:49:52.813Z,1023.91
2017-03-15T08:51:02.755Z,1023.93
2017-03-15T08:52:12.689Z,1023.94
2017-03-15T08:53:22.937Z,1023.96
2017-03-15T08:54:33.188Z,1023.94
2017-03-15T08:55:43.115Z,1023.92
2017-03-15T08:56:52.119Z,1023.91
2017-03-15T08:58:01.739Z,1023.91
2017-03-15T08:59:11.667Z,1023.87
2017-03-15T09:00:21.597Z,1023.96
2017-03-15T09:01:31.837Z,1023.91
2017-03-15T09:02:41.453Z,1023.88
2017-03-15T09:03:51.083Z,1023.9
2017-03-15T09:05:01.006Z,1023.86
2017-03-15T09:06:10.618Z,1023.84
2017-03-15T09:07:20.868Z,1023.81
2017-03-15T09:08:31.107Z,1023.76
2017-03-15T09:09:41.038Z,1023.75
2017-03-15T09:10:50.967Z,1023.71
2017-03-15T09:12:01.205Z,1023.75
2017-03-15T09:13:10.822Z,1023.79
2017-03-15T09:14:21.069Z,1023.74
2017-03-15T09:15:31.321Z,1023.8
2017-03-15T09:16:41.564Z,1023.76
2017-03-15T09:17:51.808Z,1023.86
2017-03-15T09:19:01.740Z,1023.76
2017-03-15T09:20:11.870Z,1023.75
2017-03-15T09:21:21.834Z,1023.79
2017-03-15T09:22:31.461Z,1023.66
2017-03-15T09:23:41.094Z,1023.71
2017-03-15T09:24:50.399Z,1023.7
2017-03-15T09:26:00.330Z,1023.65
2017-03-15T09:27:10.579Z,1023.72
2017-03-15T09:28:20.511Z,1023.64
2017-03-15T09:29:30.447Z,1023.72
2017-03-15T09:30:40.697Z,1023.66
2017-03-15T09:31:50.955Z,1023.6
2017-03-15T09:33:01.200Z,1023.73
2017-03-15T09:34:11.453Z,1023.83
2017-03-15T09:35:21.072Z,1023.85
2017-03-15T09:36:31.322Z,1023.77
2017-03-15T09:37:41.257Z,1023.79
2017-03-15T09:38:50.598Z,1023.85
2017-03-15T09:40:00.560Z,1023.8
2017-03-15T09:41:10.500Z,1023.88
2017-03-15T09:42:20.431Z,1023.81
2017-03-15T09:43:30.359Z,1023.95
2017-03-15T09:44:40.607Z,1023.8
2017-03-15T09:45:50.542Z,1023.92
2017-03-15T09:47:00.793Z,1023.88
2017-03-15T09:48:10.732Z,1023.93
2017-03-15T09:49:20.970Z,1023.92
2017-03-15T09:50:30.588Z,1023.84
2017-03-15T09:51:40.516Z,1023.85
2017-03-15T09:52:50.767Z,1023.9
2017-03-15T09:54:00.697Z,1023.83
2017-03-15T09:55:10.949Z,1023.86
2017-03-15T09:56:20.881Z,1023.93
2017-03-15T09:57:30.811Z,1023.96
2017-03-15T09:58:40.426Z,1023.97
2017-03-15T09:59:50.660Z,1024.14
2017-03-15T10:01:00.585Z,1024.01
2017-03-15T10:02:10.511Z,1024.02
2017-03-15T10:03:20.447Z,1023.97
2017-03-15T10:04:30.065Z,1023.98
2017-03-15T10:05:39.675Z,1024.05
2017-03-15T10:06:49.602Z,1023.98
2017-03-15T10:07:59.244Z,1023.87
2017-03-15T10:09:08.894Z,1023.92
2017-03-15T10:10:18.825Z,1023.89
2017-03-15T10:11:28.769Z,1023.88
2017-03-15T10:12:39.016Z,1023.9
2017-03-15T10:13:48.943Z,1023.9
2017-03-15T10:14:58.872Z,1023.94
2017-03-15T10:16:08.491Z,1023.97
2017-03-15T10:17:18.432Z,1024.01
2017-03-15T10:18:28.671Z,1023.95
2017-03-15T10:19:38.601Z,1024.01
2017-03-15T10:20:48.527Z,1024.02
2017-03-15T10:21:58.762Z,1023.96
2017-03-15T10:23:08.694Z,1024.01
2017-03-15T10:24:18.933Z,1023.96
2017-03-15T10:25:29.177Z,1023.96
2017-03-15T10:26:39.111Z,1023.98
2017-03-15T10:27:49.382Z,1023.97
2017-03-15T10:28:58.999Z,1023.9
2017-03-15T10:30:08.317Z,1023.8
2017-03-15T10:31:17.931Z,1023.86
2017-03-15T10:32:27.805Z,1023.92
2017-03-15T10:33:37.750Z,1023.97
2017-03-15T10:34:48.006Z,1023.86
2017-03-15T10:35:57.942Z,1024.03
2017-03-15T10:37:07.869Z,1024.07
2017-03-15T10:38:17.829Z,1024
2017-03-15T10:39:27.449Z,1024.09
2017-03-15T10:40:37.405Z,1024.15
2017-03-15T10:41:47.647Z,1024.07
2017-03-15T10:42:57.891Z,1024.12
2017-03-15T10:44:08.131Z,1024.19
2017-03-15T10:45:18.075Z,1024.18
2017-03-15T10:46:28.007Z,1024.24
2017-03-15T10:47:38.250Z,1024.18
2017-03-15T10:48:48.181Z,1024.22
2017-03-15T10:49:58.109Z,1024.22
2017-03-15T10:51:07.727Z,1024.24
2017-03-15T10:52:17.966Z,1024.23
2017-03-15T10:53:27.918Z,1024.23
2017-03-15T10:54:37.852Z,1024.24
2017-03-15T10:55:48.097Z,1024.2
2017-03-15T10:56:57.715Z,1024.23
2017-03-15T10:58:07.642Z,1024.21
2017-03-15T10:59:17.574Z,1024.26
2017-03-15T11:00:27.820Z,1024.23
2017-03-15T11:01:37.752Z,1024.2
2017-03-15T11:02:47.697Z,1024.18
2017-03-15T11:03:56.997Z,1024.07
2017-03-15T11:05:06.929Z,1024.12
2017-03-15T11:06:16.858Z,1024.16
2017-03-15T11:07:26.787Z,1024.17
2017-03-15T11:08:36.422Z,1024.07
2017-03-15T11:09:46.667Z,1024.05
2017-03-15T11:10:56.602Z,1024.1
2017-03-15T11:12:06.220Z,1023.97
2017-03-15T11:13:16.155Z,1024.02
2017-03-15T11:14:26.079Z,1023.97
2017-03-15T11:15:35.694Z,1023.96
2017-03-15T11:16:45.304Z,1023.96
2017-03-15T11:17:54.920Z,1023.89
2017-03-15T11:19:04.253Z,1023.81
2017-03-15T11:20:14.494Z,1023.88
2017-03-15T11:21:24.106Z,1023.84
2017-03-15T11:22:34.353Z,1023.94
2017-03-15T11:23:43.968Z,1023.92
2017-03-15T11:24:53.583Z,1023.92
2017-03-15T11:26:03.516Z,1023.92
2017-03-15T11:27:13.755Z,1023.9
2017-03-15T11:28:23.992Z,1023.94
2017-03-15T11:29:33.305Z,1023.91
2017-03-15T11:30:43.260Z,1023.91
2017-03-15T11:31:53.537Z,1023.93
2017-03-15T11:33:03.468Z,1023.9
2017-03-15T11:34:13.711Z,1023.93
2017-03-15T11:35:23.957Z,1023.88
2017-03-15T11:36:33.884Z,1023.84
2017-03-15T11:37:43.809Z,1023.79
2017-03-15T11:38:53.431Z,1023.81
2017-03-15T11:40:02.412Z,1023.71
2017-03-15T11:41:12.646Z,1023.69
2017-03-15T11:42:22.258Z,1023.65
2017-03-15T11:43:32.186Z,1023.61
2017-03-15T11:44:42.433Z,1023.67
2017-03-15T11:45:52.667Z,1023.58
2017-03-15T11:47:02.285Z,1023.66
2017-03-15T11:48:12.206Z,1023.61
2017-03-15T11:49:22.450Z,1023.55
2017-03-15T11:50:32.069Z,1023.55
2017-03-15T11:51:41.692Z,1023.48
2017-03-15T11:52:51.615Z,1023.47
2017-03-15T11:54:01.533Z,1023.59
2017-03-15T11:55:10.836Z,1023.6
2017-03-15T11:56:21.081Z,1023.62
2017-03-15T11:57:30.702Z,1023.64
2017-03-15T11:58:40.633Z,1023.65
2017-03-15T11:59:50.872Z,1023.68
2017-03-15T12:01:00.488Z,1023.61
2017-03-15T12:02:10.419Z,1023.65
2017-03-15T12:03:20.653Z,1023.6
2017-03-15T12:04:30.919Z,1023.63
2017-03-15T12:05:41.159Z,1023.56
2017-03-15T12:06:50.774Z,1023.56
2017-03-15T12:08:01.017Z,1023.61
2017-03-15T12:09:10.947Z,1023.67
2017-03-15T12:10:20.560Z,1023.64
2017-03-15T12:11:30.483Z,1023.56
2017-03-15T12:12:40.721Z,1023.61
2017-03-15T12:13:50.964Z,1023.74
2017-03-15T12:15:00.593Z,1023.76
2017-03-15T12:16:10.832Z,1023.74
2017-03-15T12:17:20.436Z,1023.8
2017-03-15T12:18:30.049Z,1023.84
2017-03-15T12:19:40.283Z,1023.78
2017-03-15T12:20:49.898Z,1023.76
2017-03-15T12:21:59.195Z,1023.77
2017-03-15T12:23:09.430Z,1023.65
2017-03-15T12:24:19.662Z,1023.65
2017-03-15T12:25:28.963Z,1023.74
2017-03-15T12:26:38.896Z,1023.77
2017-03-15T12:27:49.133Z,1023.7
2017-03-15T12:28:58.746Z,1023.76
2017-03-15T12:30:08.670Z,1023.69
2017-03-15T12:31:18.279Z,1023.77
2017-03-15T12:32:28.517Z,1023.69
2017-03-15T12:33:38.446Z,1023.66
2017-03-15T12:34:48.685Z,1023.59
2017-03-15T12:35:58.610Z,1023.68
2017-03-15T12:37:08.538Z,1023.64
2017-03-15T12:38:18.474Z,1023.66
2017-03-15T12:39:28.717Z,1023.72
2017-03-15T12:40:38.657Z,1023.68
2017-03-15T12:41:48.900Z,1023.69
2017-03-15T12:42:58.852Z,1023.82
2017-03-15T12:44:08.792Z,1023.81
2017-03-15T12:45:18.753Z,1023.75
2017-03-15T12:46:28.369Z,1023.68
2017-03-15T12:47:38.613Z,1023.75
2017-03-15T12:48:48.850Z,1023.61
2017-03-15T12:49:58.457Z,1023.64
2017-03-15T12:51:08.068Z,1023.59
2017-03-15T12:52:17.676Z,1023.57
2017-03-15T12:53:27.605Z,1023.58
2017-03-15T12:54:37.536Z,1023.69
2017-03-15T12:55:47.776Z,1023.69
2017-03-15T12:56:57.418Z,1023.68
2017-03-15T12:58:06.715Z,1023.68
2017-03-15T12:59:16.638Z,1023.63
2017-03-15T13:00:26.280Z,1023.74
2017-03-15T13:01:36.206Z,1023.79
2017-03-15T13:02:45.502Z,1023.69
2017-03-15T13:03:55.423Z,1023.68
2017-03-15T13:05:04.718Z,1023.87
2017-03-15T13:06:14.647Z,1023.76
2017-03-15T13:07:24.887Z,1023.81
2017-03-15T13:08:34.500Z,1023.87
2017-03-15T13:09:44.429Z,1023.78
2017-03-15T13:10:53.425Z,1023.67
2017-03-15T13:12:03.350Z,1023.71
2017-03-15T13:13:12.959Z,1023.62
2017-03-15T13:14:22.883Z,1023.81
2017-03-15T13:15:33.123Z,1023.86
2017-03-15T13:16:43.049Z,1023.85
2017-03-15T13:17:52.974Z,1023.85
2017-03-15T13:19:02.910Z,1023.86
2017-03-15T13:20:13.155Z,1023.89
2017-03-15T13:21:22.772Z,1023.96
2017-03-15T13:22:32.701Z,1023.99
2017-03-15T13:23:42.626Z,1023.88
2017-03-15T13:24:52.243Z,1023.83
2017-03-15T13:26:02.168Z,1023.86
2017-03-15T13:27:11.783Z,1023.94
2017-03-15T13:28:21.710Z,1023.96
2017-03-15T13:29:31.637Z,1023.88
2017-03-15T13:30:41.247Z,1023.86
2017-03-15T13:31:51.482Z,1023.9
2017-03-15T13:33:01.097Z,1023.8
2017-03-15T13:34:11.024Z,1023.86
2017-03-15T13:35:20.948Z,1023.9
2017-03-15T13:36:31.193Z,1023.83
2017-03-15T13:37:41.460Z,1023.97
2017-03-15T13:38:51.399Z,1023.77
2017-03-15T13:40:01.642Z,1023.78
2017-03-15T13:41:11.568Z,1023.74
2017-03-15T13:42:21.492Z,1023.7
2017-03-15T13:43:31.424Z,1023.66
2017-03-15T13:44:41.351Z,1023.8
2017-03-15T13:45:51.284Z,1023.76
2017-03-15T13:47:01.210Z,1023.7
2017-03-15T13:48:11.133Z,1023.67
2017-03-15T13:49:21.061Z,1023.73
2017-03-15T13:50:30.681Z,1023.63
2017-03-15T13:51:40.294Z,1023.77
2017-03-15T13:52:50.227Z,1023.69
2017-03-15T13:54:00.152Z,1023.7
2017-03-15T13:55:09.766Z,1023.69
2017-03-15T13:56:20.013Z,1023.71
2017-03-15T13:57:29.944Z,1023.82
2017-03-15T13:58:39.869Z,1023.72
2017-03-15T13:59:49.173Z,1023.83
2017-03-15T14:00:58.787Z,1023.77
2017-03-15T14:02:07.779Z,1023.73
2017-03-15T14:03:17.398Z,1023.84
2017-03-15T14:04:27.638Z,1023.82
2017-03-15T14:05:37.260Z,1023.77
2017-03-15T14:06:47.186Z,1023.75
2017-03-15T14:07:57.427Z,1023.81
2017-03-15T14:09:07.048Z,1023.71